createdAt,value
2023-05-10T00:02:16.898Z,69.57
2023-05-10T00:04:43.559Z,71.10
2023-05-10T00:07:11.324Z,71.16
2023-05-10T00:09:37.923Z,71.14
2023-05-10T00:12:04.745Z,71.64
2023-05-10T00:14:31.408Z,71.81
2023-05-10T00:16:58.032Z,71.28
2023-05-10T00:19:25.211Z,71.70
2023-05-10T00:21:51.779Z,70.88
2023-05-10T00:24:18.327Z,71.70
2023-05-10T00:26:44.909Z,71.24
2023-05-10T00:29:11.510Z,71.91
2023-05-10T00:31:38.084Z,72.33
2023-05-10T00:34:04.677Z,73.36
2023-05-10T00:36:32.269Z,73.77
2023-05-10T00:38:59.021Z,75.06
2023-05-10T00:41:25.627Z,74.53
2023-05-10T00:43:52.241Z,74.29
2023-05-10T00:46:19.332Z,75.26
2023-05-10T00:48:46.337Z,76.29
2023-05-10T00:51:13.935Z,76.58
2023-05-10T00:53:41.526Z,76.23
2023-05-10T00:56:08.205Z,76.09
2023-05-10T00:58:34.950Z,75.87
2023-05-10T01:01:02.314Z,75.74
2023-05-10T01:03:29.337Z,76.29
2023-05-10T01:05:56.288Z,76.48
2023-05-10T01:08:23.006Z,76.34
2023-05-10T01:10:53.576Z,76.55
2023-05-10T01:13:41.914Z,76.73
2023-05-10T01:16:08.776Z,76.99
2023-05-10T01:18:39.462Z,77.53
2023-05-10T01:21:16.205Z,78.14
2023-05-10T01:24:14.603Z,78.34
2023-05-10T01:27:11.929Z,78.87
2023-05-10T01:30:16.287Z,79.91
2023-05-10T01:33:09.157Z,80.39
2023-05-10T01:35:43.785Z,80.29
2023-05-10T01:38:19.192Z,79.77
2023-05-10T01:40:45.595Z,80.31
2023-05-10T01:43:20.657Z,80.37
2023-05-10T01:45:56.842Z,80.48
2023-05-10T01:48:25.724Z,80.97
2023-05-10T01:50:53.140Z,81.41
2023-05-10T01:53:21.519Z,81.22
2023-05-10T01:55:51.824Z,81.76
2023-05-10T01:58:23.788Z,81.72
2023-05-10T02:00:53.301Z,81.78
2023-05-10T02:03:23.211Z,82.51
2023-05-10T02:05:51.919Z,82.47
2023-05-10T02:08:20.080Z,82.54
2023-05-10T02:10:47.519Z,82.35
2023-05-10T02:13:17.253Z,81.32
2023-05-10T02:15:46.311Z,81.85
2023-05-10T02:18:14.708Z,83.29
2023-05-10T02:20:42.831Z,83.61
2023-05-10T02:23:10.853Z,83.88
2023-05-10T02:25:39.711Z,83.57
2023-05-10T02:28:08.404Z,83.41
2023-05-10T02:30:35.826Z,83.84
2023-05-10T02:33:05.223Z,83.29
2023-05-10T02:35:34.399Z,82.68
2023-05-10T02:38:02.029Z,82.57
2023-05-10T02:40:29.602Z,82.05
2023-05-10T02:42:57.898Z,81.87
2023-05-10T02:45:29.088Z,81.35
2023-05-10T02:47:56.735Z,81.74
2023-05-10T02:50:25.886Z,81.30
2023-05-10T02:52:55.545Z,80.84
2023-05-10T02:55:33.339Z,80.75
2023-05-10T02:58:01.981Z,80.28
2023-05-10T03:00:29.025Z,80.59
2023-05-10T03:02:55.948Z,79.90
2023-05-10T03:05:22.764Z,79.83
2023-05-10T03:07:49.537Z,78.48
2023-05-10T03:10:16.795Z,78.57
2023-05-10T03:13:26.112Z,78.51
2023-05-10T03:16:00.221Z,78.45
2023-05-10T03:18:34.817Z,78.73
2023-05-10T03:21:08.209Z,78.32
2023-05-10T03:23:44.331Z,78.83
2023-05-10T03:26:15.672Z,78.80
2023-05-10T03:28:42.835Z,79.08
2023-05-10T03:31:10.187Z,78.95
2023-05-10T03:33:36.800Z,78.91
2023-05-10T03:36:03.596Z,79.10
2023-05-10T03:38:30.720Z,79.53
2023-05-10T03:40:57.342Z,79.33
2023-05-10T03:43:23.935Z,79.82
2023-05-10T03:45:50.581Z,79.78
2023-05-10T03:48:17.130Z,80.09
2023-05-10T03:50:43.938Z,80.96
2023-05-10T03:53:10.608Z,80.70
2023-05-10T03:55:37.567Z,80.67
2023-05-10T03:58:04.268Z,80.66
2023-05-10T04:00:31.186Z,80.78
2023-05-10T04:02:57.905Z,81.26
2023-05-10T04:05:24.755Z,81.10
2023-05-10T04:07:52.179Z,80.78
2023-05-10T04:10:19.052Z,80.22
2023-05-10T04:12:45.849Z,80.54
2023-05-10T04:15:12.518Z,80.47
2023-05-10T04:17:39.163Z,80.63
2023-05-10T04:20:06.496Z,80.82
2023-05-10T04:22:33.400Z,80.37
2023-05-10T04:25:00.016Z,80.30
2023-05-10T04:27:26.637Z,80.05
2023-05-10T04:29:53.205Z,80.39
2023-05-10T04:32:20.163Z,80.13
2023-05-10T04:34:47.017Z,79.72
2023-05-10T04:37:13.600Z,79.78
2023-05-10T04:39:42.192Z,79.56
2023-05-10T04:42:09.251Z,79.35
2023-05-10T04:44:36.381Z,79.24
2023-05-10T04:47:03.927Z,77.79
2023-05-10T04:49:30.921Z,77.02
2023-05-10T04:51:57.546Z,77.02
2023-05-10T04:54:24.218Z,78.08
2023-05-10T04:56:50.804Z,77.81
2023-05-10T04:59:17.404Z,77.55
2023-05-10T05:01:44.317Z,75.73
2023-05-10T05:04:10.922Z,75.87
2023-05-10T05:06:37.653Z,75.34
2023-05-10T05:09:04.301Z,75.68
2023-05-10T05:11:31.004Z,75.45
2023-05-10T05:13:59.897Z,74.96
2023-05-10T05:16:26.965Z,75.80
2023-05-10T05:18:53.545Z,74.72
2023-05-10T05:21:21.070Z,73.57
2023-05-10T05:23:47.634Z,74.53
2023-05-10T05:26:14.237Z,74.29
2023-05-10T05:28:40.887Z,75.14
2023-05-10T05:31:08.724Z,74.82
2023-05-10T05:33:35.865Z,74.43
2023-05-10T05:36:04.299Z,74.32
2023-05-10T05:38:31.084Z,73.74
2023-05-10T05:40:58.144Z,74.30
2023-05-10T05:43:24.783Z,74.15
2023-05-10T05:45:54.172Z,72.71
2023-05-10T05:48:21.098Z,71.95
2023-05-10T05:50:47.658Z,72.54
2023-05-10T05:53:14.281Z,72.84
2023-05-10T05:55:41.059Z,71.52
2023-05-10T05:58:07.698Z,71.40
2023-05-10T06:00:34.348Z,69.72
2023-05-10T06:03:00.949Z,68.94
2023-05-10T06:05:27.714Z,68.90
2023-05-10T06:07:54.510Z,69.56
2023-05-10T06:10:21.038Z,68.38
2023-05-10T06:12:47.784Z,69.24
2023-05-10T06:15:14.653Z,67.97
2023-05-10T06:17:41.483Z,69.33
2023-05-10T06:20:08.685Z,69.21
2023-05-10T06:22:35.555Z,68.30
2023-05-10T06:25:03.007Z,68.61
2023-05-10T06:27:32.577Z,67.21
2023-05-10T06:30:11.934Z,66.74
2023-05-10T06:32:39.840Z,65.14
2023-05-10T06:35:06.935Z,65.74
2023-05-10T06:37:33.514Z,66.21
2023-05-10T06:40:00.279Z,66.37
2023-05-10T06:42:28.061Z,63.98
2023-05-10T06:44:54.608Z,62.82
2023-05-10T06:47:21.170Z,63.35
2023-05-10T06:49:47.818Z,63.79
2023-05-10T06:52:14.403Z,63.15
2023-05-10T06:54:40.946Z,63.21
2023-05-10T06:57:15.967Z,64.13
2023-05-10T06:59:50.278Z,63.09
2023-05-10T07:02:16.999Z,61.95
2023-05-10T07:04:43.641Z,62.31
2023-05-10T07:07:10.289Z,63.55
2023-05-10T07:09:36.895Z,61.87
2023-05-10T07:12:03.845Z,62.62
2023-05-10T07:14:30.483Z,61.19
2023-05-10T07:16:57.149Z,59.61
2023-05-10T07:19:24.120Z,60.85
2023-05-10T07:21:51.829Z,61.46
2023-05-10T07:24:18.682Z,60.41
2023-05-10T07:26:45.321Z,62.18
2023-05-10T07:29:11.898Z,59.82
2023-05-10T07:31:38.680Z,58.26
2023-05-10T07:34:05.702Z,59.36
2023-05-10T07:36:32.373Z,61.75
2023-05-10T07:38:58.951Z,60.64
2023-05-10T07:41:27.865Z,59.90
2023-05-10T07:43:54.464Z,56.67
2023-05-10T07:46:21.228Z,58.27
2023-05-10T07:48:47.883Z,55.52
2023-05-10T07:51:14.695Z,55.85
2023-05-10T07:53:41.517Z,53.00
2023-05-10T07:56:32.685Z,54.70
2023-05-10T07:59:00.811Z,53.87
2023-05-10T08:01:32.890Z,55.07
2023-05-10T08:03:59.542Z,52.62
2023-05-10T08:06:29.048Z,54.41
2023-05-10T08:08:55.733Z,51.85
2023-05-10T08:11:22.465Z,53.25
2023-05-10T08:13:50.793Z,53.27
2023-05-10T08:16:18.327Z,54.31
2023-05-10T08:18:46.806Z,52.17
2023-05-10T08:21:14.501Z,52.05
2023-05-10T08:23:41.692Z,51.61
2023-05-10T08:26:08.279Z,50.98
2023-05-10T08:28:34.875Z,51.72
2023-05-10T08:31:01.575Z,52.63
2023-05-10T08:33:28.185Z,52.27
2023-05-10T08:35:54.788Z,51.96
2023-05-10T08:38:21.589Z,52.52
2023-05-10T08:40:51.805Z,51.28
2023-05-10T08:43:19.228Z,50.53
2023-05-10T08:45:48.690Z,49.19
2023-05-10T08:48:17.490Z,52.30
2023-05-10T08:50:46.002Z,49.36
2023-05-10T08:53:14.098Z,48.10
2023-05-10T08:55:43.068Z,48.79
2023-05-10T08:58:10.374Z,49.02
2023-05-10T09:00:38.307Z,50.01
2023-05-10T09:03:06.592Z,50.27
2023-05-10T09:05:33.625Z,49.38
2023-05-10T09:08:01.630Z,50.94
2023-05-10T09:10:29.786Z,50.78
2023-05-10T09:12:59.718Z,50.96
2023-05-10T09:15:26.884Z,49.71
2023-05-10T09:17:53.940Z,49.52
2023-05-10T09:20:20.697Z,48.77
2023-05-10T09:22:47.568Z,51.07
2023-05-10T09:25:16.611Z,48.14
2023-05-10T09:27:47.892Z,48.44
2023-05-10T09:30:28.647Z,45.74
2023-05-10T09:32:56.986Z,44.48
2023-05-10T09:35:29.299Z,44.78
2023-05-10T09:37:58.272Z,44.81
2023-05-10T09:40:26.290Z,44.28
2023-05-10T09:43:00.449Z,44.52
2023-05-10T09:45:29.063Z,46.35
2023-05-10T09:47:56.656Z,44.37
2023-05-10T09:50:23.968Z,44.03
2023-05-10T09:53:01.218Z,42.54
2023-05-10T09:55:41.347Z,44.12
2023-05-10T09:58:11.492Z,43.80
2023-05-10T10:00:43.592Z,42.69
2023-05-10T10:03:21.050Z,43.96
2023-05-10T10:05:49.396Z,44.95
2023-05-10T10:08:16.871Z,45.03
2023-05-10T10:10:46.926Z,41.30
2023-05-10T10:13:14.602Z,39.93
2023-05-10T10:15:43.108Z,39.44
2023-05-10T10:18:14.295Z,43.44
2023-05-10T10:20:41.346Z,42.73
2023-05-10T10:23:09.327Z,41.25
2023-05-10T10:25:36.586Z,39.67
2023-05-10T10:28:27.539Z,39.01
2023-05-10T10:30:57.256Z,40.09
2023-05-10T10:33:29.768Z,42.35
2023-05-10T10:35:59.923Z,41.86
2023-05-10T10:38:26.531Z,40.95
2023-05-10T10:41:04.123Z,38.00
2023-05-10T10:43:31.360Z,39.65
2023-05-10T10:46:15.673Z,39.26
2023-05-10T10:48:48.046Z,40.60
2023-05-10T10:51:15.393Z,39.04
2023-05-10T10:53:42.264Z,37.46
2023-05-10T10:56:11.621Z,37.65
2023-05-10T10:58:39.319Z,38.03
2023-05-10T11:01:14.779Z,40.83
2023-05-10T11:03:42.488Z,38.79
2023-05-10T11:06:09.304Z,36.68
2023-05-10T11:08:44.383Z,37.32
2023-05-10T11:11:15.060Z,39.80
2023-05-10T11:13:51.228Z,40.82
2023-05-10T11:16:20.539Z,38.25
2023-05-10T11:18:59.326Z,39.42
2023-05-10T11:21:26.077Z,39.28
2023-05-10T11:23:57.436Z,39.29
2023-05-10T11:26:32.443Z,39.33
2023-05-10T11:29:02.847Z,39.92
2023-05-10T11:31:30.405Z,39.63
2023-05-10T11:33:59.297Z,40.02
2023-05-10T11:36:33.528Z,37.45
2023-05-10T11:39:00.389Z,37.45
2023-05-10T11:41:31.496Z,36.24
2023-05-10T11:43:59.072Z,37.40
2023-05-10T11:46:27.999Z,36.46
2023-05-10T11:48:58.883Z,38.44
2023-05-10T11:51:26.412Z,37.24
2023-05-10T11:53:57.425Z,36.10
2023-05-10T11:56:24.588Z,36.05
2023-05-10T11:58:58.814Z,35.81
2023-05-10T12:01:25.989Z,36.62
2023-05-10T12:03:55.044Z,36.79
2023-05-10T12:06:22.647Z,36.04
2023-05-10T12:08:56.256Z,34.49
2023-05-10T12:11:26.752Z,35.63
2023-05-10T12:13:54.126Z,34.71
2023-05-10T12:16:22.805Z,34.98
2023-05-10T12:18:50.673Z,36.73
2023-05-10T12:21:17.439Z,36.05
2023-05-10T12:23:47.082Z,36.61
2023-05-10T12:26:13.974Z,36.05
2023-05-10T12:28:40.696Z,37.70
2023-05-10T12:31:08.006Z,36.82
2023-05-10T12:33:45.574Z,35.39
2023-05-10T12:36:14.659Z,37.00
2023-05-10T12:38:49.065Z,38.35
2023-05-10T12:41:19.758Z,36.16
2023-05-10T12:43:46.592Z,35.84
2023-05-10T12:46:15.396Z,34.94
2023-05-10T12:48:43.986Z,34.46
2023-05-10T12:51:12.861Z,35.20
2023-05-10T12:53:41.800Z,34.73
2023-05-10T12:56:10.958Z,36.31
2023-05-10T12:58:37.587Z,35.37
2023-05-10T13:01:05.741Z,35.94
2023-05-10T13:03:32.622Z,36.12
2023-05-10T13:05:59.297Z,35.70
2023-05-10T13:08:26.028Z,36.95
2023-05-10T13:10:53.101Z,36.23
2023-05-10T13:13:19.671Z,35.38
2023-05-10T13:15:46.235Z,33.71
2023-05-10T13:18:12.869Z,32.43
2023-05-10T13:20:39.517Z,30.97
2023-05-10T13:23:06.091Z,32.71
2023-05-10T13:25:32.705Z,32.96
2023-05-10T13:27:59.268Z,33.00
2023-05-10T13:30:26.169Z,31.16
2023-05-10T13:32:52.817Z,32.92
2023-05-10T13:35:19.446Z,32.80
2023-05-10T13:37:46.004Z,33.99
2023-05-10T13:40:12.870Z,33.20
2023-05-10T13:42:39.492Z,33.54
2023-05-10T13:45:06.897Z,34.86
2023-05-10T13:47:33.511Z,33.88
2023-05-10T13:50:00.224Z,33.70
2023-05-10T13:52:27.368Z,34.86
2023-05-10T13:54:56.002Z,34.52
2023-05-10T13:57:24.102Z,33.75
2023-05-10T13:59:51.253Z,33.04
2023-05-10T14:02:17.993Z,35.98
2023-05-10T14:04:44.588Z,35.16
2023-05-10T14:07:11.175Z,35.67
2023-05-10T14:09:37.788Z,33.83
2023-05-10T14:12:04.638Z,34.53
2023-05-10T14:14:31.303Z,33.49
2023-05-10T14:16:58.041Z,33.73
2023-05-10T14:19:24.599Z,31.41
2023-05-10T14:21:53.000Z,30.33
2023-05-10T14:24:19.586Z,30.13
2023-05-10T14:26:46.277Z,30.87
2023-05-10T14:29:13.047Z,31.28
2023-05-10T14:31:39.823Z,32.60
2023-05-10T14:34:06.718Z,29.85
2023-05-10T14:36:34.575Z,31.21
2023-05-10T14:39:01.122Z,28.46
2023-05-10T14:41:27.710Z,27.73
2023-05-10T14:43:54.300Z,26.57
2023-05-10T14:46:21.177Z,25.81
2023-05-10T14:48:47.742Z,25.64
2023-05-10T14:51:14.455Z,25.06
2023-05-10T14:53:41.141Z,25.06
2023-05-10T14:56:08.079Z,25.67
2023-05-10T14:58:34.802Z,26.36
2023-05-10T15:01:01.824Z,24.93
2023-05-10T15:03:29.108Z,23.26
2023-05-10T15:05:57.175Z,22.37
2023-05-10T15:08:24.765Z,25.20
2023-05-10T15:10:52.062Z,25.64
2023-05-10T15:13:18.645Z,25.68
2023-05-10T15:15:45.294Z,24.28
2023-05-10T15:18:11.899Z,23.66
2023-05-10T15:20:38.588Z,23.33
2023-05-10T15:23:05.165Z,24.32
2023-05-10T15:25:32.151Z,25.33
2023-05-10T15:27:58.707Z,27.01
2023-05-10T15:30:25.369Z,27.80
2023-05-10T15:32:52.220Z,28.24
2023-05-10T15:35:19.495Z,28.24
2023-05-10T15:37:48.452Z,29.61
2023-05-10T15:40:15.233Z,29.44
2023-05-10T15:42:41.946Z,29.32
2023-05-10T15:45:09.126Z,30.01
2023-05-10T15:47:35.731Z,30.91
2023-05-10T15:50:02.422Z,29.74
2023-05-10T15:52:29.098Z,29.97
2023-05-10T15:54:55.706Z,29.97
2023-05-10T15:57:22.295Z,31.08
2023-05-10T15:59:49.230Z,30.80
2023-05-10T16:02:17.599Z,31.26
2023-05-10T16:04:44.912Z,31.79
2023-05-10T16:07:11.468Z,31.78
2023-05-10T16:09:38.058Z,31.62
2023-05-10T16:12:05.000Z,32.35
2023-05-10T16:14:31.790Z,31.02
2023-05-10T16:16:58.628Z,30.20
2023-05-10T16:19:25.941Z,31.04
2023-05-10T16:21:53.812Z,29.82
2023-05-10T16:24:20.501Z,31.16
2023-05-10T16:26:47.136Z,32.55
2023-05-10T16:29:13.747Z,32.96
2023-05-10T16:31:40.333Z,33.19
2023-05-10T16:34:06.939Z,33.67
2023-05-10T16:36:33.987Z,33.35
2023-05-10T16:39:00.877Z,33.49
2023-05-10T16:41:27.459Z,33.13
2023-05-10T16:43:57.125Z,33.00
2023-05-10T16:46:23.780Z,34.21
2023-05-10T16:48:50.392Z,34.01
2023-05-10T16:51:17.116Z,34.44
2023-05-10T16:53:43.885Z,35.33
2023-05-10T16:56:10.588Z,35.08
2023-05-10T16:58:37.505Z,36.25
2023-05-10T17:01:04.190Z,35.71
2023-05-10T17:03:31.079Z,35.87
2023-05-10T17:05:58.984Z,35.87
2023-05-10T17:08:25.595Z,36.26
2023-05-10T17:10:52.154Z,36.86
2023-05-10T17:13:18.829Z,37.57
2023-05-10T17:15:47.400Z,37.66
2023-05-10T17:18:14.062Z,38.80
2023-05-10T17:20:43.278Z,39.11
2023-05-10T17:23:09.824Z,39.05
2023-05-10T17:25:36.841Z,39.83
2023-05-10T17:28:03.890Z,40.85
2023-05-10T17:30:32.702Z,40.92
2023-05-10T17:33:00.235Z,40.64
2023-05-10T17:35:27.109Z,41.30
2023-05-10T17:37:54.309Z,41.61
2023-05-10T17:40:21.017Z,41.62
2023-05-10T17:42:47.824Z,41.68
2023-05-10T17:45:15.018Z,42.02
2023-05-10T17:47:41.767Z,41.58
2023-05-10T17:50:10.167Z,42.32
2023-05-10T17:52:37.058Z,42.41
2023-05-10T17:55:03.852Z,42.51
2023-05-10T17:57:30.898Z,43.19
2023-05-10T17:59:57.481Z,42.87
2023-05-10T18:02:24.046Z,43.30
2023-05-10T18:04:50.770Z,43.70
2023-05-10T18:07:17.401Z,44.25
2023-05-10T18:09:43.956Z,44.33
2023-05-10T18:12:10.599Z,44.59
2023-05-10T18:14:41.073Z,44.75
2023-05-10T18:17:09.323Z,45.06
2023-05-10T18:19:36.136Z,45.78
2023-05-10T18:22:02.876Z,46.53
2023-05-10T18:26:59.044Z,46.43
2023-05-10T18:29:25.961Z,46.07
2023-05-10T18:31:52.578Z,46.24
2023-05-10T18:34:19.342Z,46.25
2023-05-10T18:36:46.244Z,46.21
2023-05-10T18:39:13.304Z,46.32
2023-05-10T18:41:40.201Z,46.22
2023-05-10T18:44:06.962Z,46.13
2023-05-10T18:46:33.769Z,46.06
2023-05-10T18:49:00.352Z,46.24
2023-05-10T18:51:29.602Z,46.06
2023-05-10T18:53:56.117Z,46.39
2023-05-10T18:56:23.755Z,46.43
2023-05-10T18:58:50.357Z,46.64
2023-05-10T19:01:16.979Z,46.16
2023-05-10T19:03:43.550Z,46.60
2023-05-10T19:06:11.481Z,46.39
2023-05-10T19:08:38.013Z,46.48
2023-05-10T19:11:04.569Z,46.34
2023-05-10T19:13:31.135Z,46.23
2023-05-10T19:16:12.770Z,46.80
2023-05-10T19:18:40.226Z,46.59
2023-05-10T19:21:07.831Z,46.67
2023-05-10T19:23:35.234Z,46.73
2023-05-10T19:26:02.079Z,47.08
2023-05-10T19:28:28.680Z,46.70
2023-05-10T19:30:55.343Z,46.75
2023-05-10T19:33:22.012Z,46.55
2023-05-10T19:35:55.142Z,46.90
2023-05-10T19:38:25.802Z,46.72
2023-05-10T19:40:58.057Z,47.10
2023-05-10T19:43:29.011Z,47.81
2023-05-10T19:45:59.204Z,47.31
2023-05-10T19:48:26.151Z,47.49
2023-05-10T19:51:01.293Z,47.41
2023-05-10T19:53:28.269Z,47.80
2023-05-10T19:55:55.551Z,47.80
2023-05-10T19:58:23.459Z,47.66
2023-05-10T20:00:50.093Z,48.06
2023-05-10T20:03:16.836Z,48.18
2023-05-10T20:05:43.491Z,48.46
2023-05-10T20:08:10.059Z,48.64
2023-05-10T20:10:36.641Z,48.22
2023-05-10T20:13:03.242Z,47.95
2023-05-10T20:15:30.064Z,48.65
2023-05-10T20:17:56.696Z,49.24
2023-05-10T20:20:23.673Z,49.49
2023-05-10T20:22:50.626Z,49.05
2023-05-10T20:25:18.334Z,50.52
2023-05-10T20:27:45.366Z,49.81
2023-05-10T20:30:12.523Z,49.77
2023-05-10T20:32:39.548Z,51.46
2023-05-10T20:35:07.162Z,51.82
2023-05-10T20:37:33.707Z,51.83
2023-05-10T20:40:00.310Z,51.85
2023-05-10T20:42:27.101Z,51.64
2023-05-10T20:44:53.750Z,52.90
2023-05-10T20:47:20.476Z,52.79
2023-05-10T20:49:47.106Z,54.66
2023-05-10T20:52:13.928Z,54.01
2023-05-10T20:54:40.728Z,54.99
2023-05-10T20:57:07.513Z,55.11
2023-05-10T20:59:34.312Z,57.05
2023-05-10T21:02:01.291Z,56.95
2023-05-10T21:04:28.022Z,57.60
2023-05-10T21:06:56.134Z,58.76
2023-05-10T21:09:22.927Z,58.75
2023-05-10T21:11:50.882Z,59.04
2023-05-10T21:14:17.485Z,58.27
2023-05-10T21:16:44.152Z,57.88
2023-05-10T21:19:12.006Z,57.32
2023-05-10T21:21:38.643Z,58.82
2023-05-10T21:24:05.863Z,59.06
2023-05-10T21:26:32.570Z,58.86
2023-05-10T21:28:59.360Z,60.07
2023-05-10T21:31:26.108Z,61.44
2023-05-10T21:33:52.753Z,59.70
2023-05-10T21:36:19.444Z,58.54
2023-05-10T21:38:46.682Z,58.90
2023-05-10T21:41:13.293Z,60.35
2023-05-10T21:43:39.872Z,59.32
2023-05-10T21:46:07.446Z,61.32
2023-05-10T21:48:34.077Z,59.25
2023-05-10T21:51:01.642Z,57.64
2023-05-10T21:53:28.989Z,58.21
2023-05-10T21:55:56.338Z,57.79
2023-05-10T21:58:23.197Z,57.28
2023-05-10T22:00:49.975Z,57.71
2023-05-10T22:03:16.669Z,57.17
2023-05-10T22:05:43.560Z,56.45
2023-05-10T22:08:10.101Z,55.06
2023-05-10T22:10:36.688Z,56.40
2023-05-10T22:13:05.370Z,57.53
2023-05-10T22:15:34.215Z,59.45
2023-05-10T22:18:02.431Z,58.73
2023-05-10T22:20:29.191Z,59.29
2023-05-10T22:22:56.069Z,60.01
2023-05-10T22:25:22.801Z,59.36
2023-05-10T22:27:49.386Z,59.20
2023-05-10T22:30:16.515Z,58.16
2023-05-10T22:32:43.463Z,58.41
2023-05-10T22:35:10.050Z,59.88
2023-05-10T22:37:36.603Z,60.39
2023-05-10T22:40:03.946Z,59.73
2023-05-10T22:42:30.525Z,59.02
2023-05-10T22:44:57.210Z,56.66
2023-05-10T22:47:23.764Z,54.15
2023-05-10T22:49:50.394Z,54.53
2023-05-10T22:52:16.949Z,53.90
2023-05-10T22:54:44.287Z,53.50
2023-05-10T22:57:11.322Z,53.16
2023-05-10T22:59:37.901Z,53.03
2023-05-10T23:02:04.675Z,53.15
2023-05-10T23:04:31.346Z,55.37
2023-05-10T23:06:57.963Z,56.48
2023-05-10T23:09:24.600Z,56.92
2023-05-10T23:11:51.191Z,56.29
2023-05-10T23:14:17.760Z,57.61
2023-05-10T23:16:44.420Z,58.21
2023-05-10T23:19:11.197Z,58.63
2023-05-10T23:21:37.977Z,58.93
2023-05-10T23:24:04.965Z,59.73
2023-05-10T23:26:31.614Z,61.10
2023-05-10T23:28:58.178Z,60.29
2023-05-10T23:31:24.823Z,60.62
2023-05-10T23:33:51.405Z,61.61
2023-05-10T23:36:19.596Z,62.53
2023-05-10T23:38:46.257Z,63.76
2023-05-10T23:41:13.057Z,64.47
2023-05-10T23:43:39.693Z,64.50
2023-05-10T23:46:06.574Z,64.15
2023-05-10T23:48:33.179Z,63.48
2023-05-10T23:50:59.802Z,65.07
2023-05-10T23:53:26.478Z,64.79
2023-05-10T23:55:53.059Z,65.00
2023-05-10T23:58:19.689Z,65.75
